• Join FlightAware (Why Join?)
  • Login
  • US Flag 
07:47AM EDT


 

Airport Tracker/Info


-or-


 

Live Flight TrackerFlight Track Log ✈ OPT332 ✈ 09-Nov-2013 ✈ KAUS - KHOU

Flight Track Log - Related Links

Times and Time Zones

All times are in EST time to prevent confusion due to time zone crossing. See the OPT332 flight status page for this flight to view local times or setup timezone preferences in your user account.

Time Position Orientation Groundspeed Altitude Reporting Facility
EST Latitude Longitude Course Direction KTS MPH feet Rate Location/Type
08:40AM 30.1835 -97.6554 168° South 150 173 1,400  Level FlightAware ADS-B
08:40AM 30.1809 -97.6540 155° Southeast 156 180 1,700 3,420 Climbing FlightAware ADS-B
08:40AM 30.1738 -97.6498 153° Southeast 173 199 2,200 3,360 Climbing FlightAware ADS-B
08:41AM 30.1624 -97.6422 150° Southeast 189 217 3,100 4,020 Climbing FlightAware ADS-B
08:41AM 30.1501 -97.6340 150° Southeast 202 232 4,300 4,620 Climbing FlightAware ADS-B
08:41AM 30.1301 -97.6202 149° Southeast 205 236 6,200 4,680 Climbing FlightAware ADS-B
08:41AM 30.1274 -97.6172 136° Southeast 210 242 6,500 3,780 Climbing FlightAware ADS-B
08:42AM 30.1216 -97.5978 109° East 231 266 7,600 3,600 Climbing FlightAware ADS-B
08:42AM 30.1245 -97.5857 75° East 244 281 8,200 3,660 Climbing FlightAware ADS-B
08:42AM 30.1267 -97.5812 61° Northeast 248 285 8,400 3,180 Climbing FlightAware ADS-B
08:42AM 30.1332 -97.5695 57° Northeast 264 304 8,900 3,000 Climbing FlightAware ADS-B
08:42AM 30.1440 -97.5460 62° Northeast 280 322 9,800 3,300 Climbing FlightAware ADS-B
08:43AM 30.1567 -97.5162 64° Northeast 292 336 11,100 1,440 Climbing FlightAware ADS-B
08:44AM 30.1991 -97.4212 63° Northeast 355 409 11,800 1,320 Climbing FlightAware ADS-B
08:44AM 30.2230 -97.3683 62° Northeast 347 399 13,200 2,820 Climbing FlightAware ADS-B
08:45AM 30.2465 -97.3161 62° Northeast 350 403 14,800 3,000 Climbing FlightAware ADS-B
08:45AM 30.2696 -97.2648 62° Northeast 359 413 16,300 1,860 Climbing FlightAware ADS-B
08:46AM 30.2944 -97.2096 62° Northeast 366 421 16,800 300 Climbing FlightAware ADS-B
08:47AM 30.2999 -97.0909 87° East 368 423 16,800  Level FlightAware ADS-B
08:47AM 30.2993 -97.0850 97° East 352 405 16,800  Level FlightAware ADS-B
08:47AM 30.2936 -97.0275 97° East 352 405 16,800  Level FlightAware ADS-B
08:48AM 30.2879 -96.9711 97° East 352 405 16,800  Level FlightAware ADS-B
08:48AM 30.2819 -96.9138 97° East 352 405 16,800  Level FlightAware ADS-B
08:49AM 30.2756 -96.8525 97° East 353 406 16,800  Level FlightAware ADS-B
08:50AM 30.2696 -96.7955 97° East 353 406 16,800  Level FlightAware ADS-B
08:50AM 30.2636 -96.7383 97° East 353 406 16,800  Level FlightAware ADS-B
08:51AM 30.2576 -96.6820 97° East 353 406 16,800  Level FlightAware ADS-B
08:51AM 30.2513 -96.6234 97° East 352 405 16,800 -120 Level FlightAware ADS-B
08:52AM 30.2451 -96.5658 97° East 351 404 16,700 -1,080 Descending FlightAware ADS-B
08:52AM 30.2390 -96.5084 97° East 346 398 15,700 -1,860 Descending FlightAware ADS-B
08:53AM 30.2323 -96.4471 97° East 341 392 14,700 -1,800 Descending FlightAware ADS-B
08:53AM 30.2263 -96.3915 97° East 345 397 13,800 -1,920 Descending FlightAware ADS-B
08:54AM 30.2201 -96.3350 97° East 354 407 12,800 -1,920 Descending FlightAware ADS-B
08:54AM 30.2138 -96.2779 97° East 358 412 11,900 -1,800 Descending FlightAware ADS-B
08:54AM 30.2119 -96.2652 100° East 357 411 11,700 -2,160 Descending FlightAware ADS-B
08:54AM 30.2086 -96.2521 106° East 354 407 11,400 -2,220 Descending FlightAware ADS-B
08:54AM 30.2063 -96.2455 112° Southeast 352 405 11,300 -1,800 Descending FlightAware ADS-B
08:55AM 30.2019 -96.2348 115° Southeast 348 400 11,100 -1,680 Descending FlightAware ADS-B
08:55AM 30.1977 -96.2267 121° Southeast 346 398 11,000 -1,140 Descending FlightAware ADS-B
08:55AM 30.1924 -96.2179 125° Southeast 341 392 10,900 -960 Descending FlightAware ADS-B
08:55AM 30.1853 -96.2081 130° Southeast 335 386 10,800 -480 Descending FlightAware ADS-B
08:55AM 30.1795 -96.2011 134° Southeast 330 380 10,800  Level FlightAware ADS-B
08:55AM 30.1699 -96.1915 139° Southeast 321 369 10,800  Level FlightAware ADS-B
08:55AM 30.1599 -96.1834 145° Southeast 319 367 10,800  Level FlightAware ADS-B
08:55AM 30.1491 -96.1764 151° Southeast 321 369 10,800  Level FlightAware ADS-B
08:56AM 30.1350 -96.1690 156° South 326 375 10,800  Level FlightAware ADS-B
08:56AM 30.1289 -96.1653 152° Southeast 329 379 10,800  Level FlightAware ADS-B
08:56AM 30.1235 -96.1609 145° Southeast 334 384 10,800  Level FlightAware ADS-B
08:56AM 30.1170 -96.1542 138° Southeast 338 389 10,800  Level FlightAware ADS-B
08:56AM 30.1013 -96.1362 135° Southeast 343 395 10,800  Level FlightAware ADS-B
08:57AM 30.0657 -96.0981 137° Southeast 350 403 10,800 -420 Level FlightAware ADS-B
08:57AM 30.0281 -96.0586 138° Southeast 348 400 10,400 -960 Descending FlightAware ADS-B
08:57AM 30.0022 -96.0314 138° Southeast 345 397 10,000 -1,020 Descending FlightAware ADS-B
08:58AM 29.9845 -96.0129 138° Southeast 343 395 9,800 -420 Descending FlightAware ADS-B
08:58AM 29.9664 -95.9939 138° Southeast 342 394 9,800  Level FlightAware ADS-B
08:58AM 29.9485 -95.9752 138° Southeast 333 383 9,800 -240 Level FlightAware ADS-B
08:58AM 29.9338 -95.9598 138° Southeast 304 350 9,700 -1,080 Descending FlightAware ADS-B
08:59AM 29.9186 -95.9438 138° Southeast 289 333 9,300 -1,800 Descending FlightAware ADS-B
08:59AM 29.9036 -95.9280 138° Southeast 285 328 8,800 -1,980 Descending FlightAware ADS-B
08:59AM 29.8881 -95.9120 138° Southeast 283 326 8,300 -1,980 Descending FlightAware ADS-B
08:59AM 29.8735 -95.8968 138° Southeast 282 325 7,800 -1,920 Descending FlightAware ADS-B
09:00AM 29.8640 -95.8868 138° Southeast 282 325 7,500 -1,920 Descending FlightAware ADS-B
09:00AM 29.8495 -95.8717 138° Southeast 281 323 7,000 -2,040 Descending FlightAware ADS-B
09:00AM 29.8347 -95.8563 138° Southeast 280 322 6,500 -2,040 Descending FlightAware ADS-B
09:00AM 29.8200 -95.8409 138° Southeast 277 319 6,000 -1,380 Descending FlightAware ADS-B
09:01AM 29.8054 -95.8257 138° Southeast 275 316 5,800 -420 Descending FlightAware ADS-B
09:01AM 29.7900 -95.8097 138° Southeast 274 315 5,800  Level FlightAware ADS-B
09:01AM 29.7755 -95.7945 138° Southeast 278 320 5,800  Level FlightAware ADS-B
09:01AM 29.7611 -95.7795 138° Southeast 281 323 5,800  Level FlightAware ADS-B
09:02AM 29.7460 -95.7638 138° Southeast 284 327 5,800  Level FlightAware ADS-B
09:02AM 29.7285 -95.7455 138° Southeast 285 328 5,800  Level FlightAware ADS-B
09:02AM 29.7245 -95.7415 139° Southeast 285 328 5,800  Level FlightAware ADS-B
09:02AM 29.7124 -95.7288 138° Southeast 287 330 5,800  Level FlightAware ADS-B
09:02AM 29.6971 -95.7130 138° Southeast 288 331 5,800  Level FlightAware ADS-B
09:03AM 29.6810 -95.6962 138° Southeast 289 333 5,800  Level FlightAware ADS-B
09:03AM 29.6655 -95.6802 138° Southeast 290 334 5,800  Level FlightAware ADS-B
09:03AM 29.6499 -95.6640 138° Southeast 290 334 5,800  Level FlightAware ADS-B
09:04AM 29.6348 -95.6484 138° Southeast 292 336 5,800 -1,200 Level FlightAware ADS-B
09:04AM 29.6087 -95.6212 138° Southeast 290 334 5,000 -1,860 Descending FlightAware ADS-B
09:04AM 29.5947 -95.6067 138° Southeast 263 303 4,500 -1,980 Descending FlightAware ADS-B
09:05AM 29.5768 -95.5816 129° Southeast 256 295 3,800 -1,680 Descending FlightAware ADS-B
09:05AM 29.5759 -95.5766 102° East 257 296 3,800 -1,200 Level FlightAware ADS-B
09:05AM 29.5787 -95.5528 82° East 273 314 3,400 -1,320 Descending FlightAware ADS-B
09:05AM 29.5819 -95.5416 72° East 274 315 3,200 -1,620 Descending FlightAware ADS-B
09:05AM 29.5861 -95.5264 72° East 269 310 2,900 -1,200 Descending FlightAware ADS-B
09:05AM 29.5877 -95.5207 72° East 267 307 2,900 -300 Level FlightAware ADS-B
09:06AM 29.5932 -95.5008 72° East 254 292 2,800 -300 Descending FlightAware ADS-B
09:06AM 29.5969 -95.4874 72° East 248 285 2,800  Level FlightAware ADS-B
09:06AM 29.5979 -95.4830 75° East 247 284 2,800  Level FlightAware ADS-B
09:06AM 29.5988 -95.4751 83° East 243 280 2,800  Level FlightAware ADS-B
09:06AM 29.5987 -95.4580 90° East 223 257 2,800  Level FlightAware ADS-B
09:06AM 29.5959 -95.4382 99° East 207 238 2,800  Level FlightAware ADS-B
09:07AM 29.5936 -95.4220 99° East 204 235 2,800  Level FlightAware ADS-B
09:07AM 29.5929 -95.4172 100° East 187 215 2,800  Level FlightAware ADS-B
09:07AM 29.5915 -95.4076 99° East 175 201 2,800 -300 Level FlightAware ADS-B
09:07AM 29.5904 -95.3996 99° East 168 193 2,700 -960 Descending FlightAware ADS-B
09:07AM 29.5890 -95.3906 100° East 167 192 2,500 -1,080 Descending FlightAware ADS-B
09:07AM 29.5877 -95.3827 100° East 155 178 2,400 -840 Descending FlightAware ADS-B
09:08AM 29.5870 -95.3782 101° East 148 170 2,300 -900 Descending FlightAware ADS-B
09:08AM 29.5866 -95.3741 96° East 144 166 2,200 -1,440 Descending FlightAware ADS-B
09:08AM 29.5862 -95.3673 94° East 139 160 2,000 -1,020 Descending FlightAware ADS-B
09:08AM 29.5862 -95.3652 89° East 139 160 2,000 -1,020 Level FlightAware ADS-B
09:08AM 29.5865 -95.3601 86° East 137 158 1,800 -1,680 Descending FlightAware ADS-B
09:08AM 29.5870 -95.3568 80° East 136 157 1,700 -1,740 Descending FlightAware ADS-B
09:08AM 29.5873 -95.3548 80° East 135 155 1,600 -1,500 Descending FlightAware ADS-B
09:08AM 29.5878 -95.3525 75° East 134 154 1,600 -900 Level FlightAware ADS-B
09:08AM 29.5884 -95.3505 72° East 133 153 1,500 -1,800 Descending FlightAware ADS-B
09:08AM 29.5899 -95.3463 67° East 133 153 1,300 -1,740 Descending FlightAware ADS-B
09:08AM 29.5901 -95.3460 60° Northeast 133 153 1,300 -900 Level FlightAware ADS-B
09:08AM 29.5915 -95.3432 60° Northeast 133 153 1,200 -1,500 Descending FlightAware ADS-B
09:08AM 29.5928 -95.3407 59° Northeast 133 153 1,100 -1,200 Descending FlightAware ADS-B
09:09AM 29.5949 -95.3371 56° Northeast 130 150 1,000 -1,380 Descending FlightAware ADS-B
09:09AM 29.5966 -95.3346 52° Northeast 124 143 900 -900 Descending FlightAware ADS-B
09:09AM 29.5974 -95.3334 53° Northeast 123 142 900 -360 Level FlightAware ADS-B
09:09AM 29.6022 -95.3268 50° Northeast 116 133 800 -480 Descending FlightAware ADS-B
09:09AM 29.6069 -95.3212 46° Northeast 107 123 700 -420 Descending FlightAware ADS-B
09:09AM 29.6078 -95.3202 46° Northeast 110 127 700 -600 Level FlightAware ADS-B
09:09AM 29.6103 -95.3175 43° Northeast 105 121 600 -780 Descending FlightAware ADS-B
09:09AM 29.6143 -95.3130 44° Northeast 103 119 500 -720 Descending FlightAware ADS-B
09:10AM 29.6163 -95.3107 45° Northeast 100 115 400 -600 Descending FlightAware ADS-B
09:10AM 29.6200 -95.3064 45° Northeast 98 113 300 -300 Descending FlightAware ADS-B
09:10AM 29.6235 -95.3025 44° Northeast 98 113 300 -360 Level FlightAware ADS-B
09:10AM 29.6312 -95.2940 44° Northeast 100 115 100 -240 Descending FlightAware ADS-B
09:11AM 29.6411 -95.2839 44° Northeast 108 124 100 120 Level Houston Center
09:13AM 29.6454 -95.2789 69° East  Level Estimated
10:05AM 29.7938 -95.3068 69° East 265 305 8,500  Level FlightAware ADS-B
10:05AM 29.8002 -95.3074 355° North 268 308 8,900 3,720 Climbing FlightAware ADS-B
10:05AM 29.8125 -95.3086 355° North 271 312 9,500 3,600 Climbing FlightAware ADS-B
10:06AM 29.8383 -95.3109 355° North 280 322 10,700 3,480 Climbing FlightAware ADS-B
10:06AM 29.8526 -95.3123 355° North 284 327 11,300 3,000 Climbing FlightAware ADS-B
10:06AM 29.8653 -95.3133 356° North 288 331 11,800 3,480 Climbing FlightAware ADS-B
10:06AM 29.8692 -95.3131 North 290 334 12,000 3,960 Climbing FlightAware ADS-B
10:06AM 29.8772 -95.3116 North 293 337 12,400 4,140 Climbing FlightAware ADS-B
10:06AM 29.8866 -95.3076 20° North 295 339 12,900 4,620 Climbing FlightAware ADS-B
10:06AM 29.8918 -95.3045 28° Northeast 297 342 13,100 2,520 Climbing FlightAware ADS-B
10:07AM 29.8944 -95.3028 28° Northeast 298 343 13,200 3,000 Climbing FlightAware ADS-B
10:07AM 29.9386 -95.2768 27° Northeast 310 357 15,100 3,120 Climbing FlightAware ADS-B
10:08AM 29.9787 -95.2538 26° Northeast 322 371 16,600 3,000 Climbing FlightAware ADS-B
10:08AM 30.0217 -95.2290 27° Northeast 330 380 18,200 2,940 Climbing FlightAware ADS-B
10:09AM 30.0643 -95.2042 27° Northeast 337 388 19,700 2,760 Climbing FlightAware ADS-B
10:09AM 30.0749 -95.1974 29° Northeast 340 391 20,000 2,520 Climbing FlightAware ADS-B
10:09AM 30.0835 -95.1896 38° Northeast 343 395 20,300 2,400 Climbing FlightAware ADS-B
10:09AM 30.1179 -95.1491 46° Northeast 354 407 21,500 2,280 Climbing FlightAware ADS-B
10:10AM 30.1550 -95.1070 44° Northeast 359 413 22,700 2,220 Climbing FlightAware ADS-B
10:10AM 30.1917 -95.0653 44° Northeast 366 421 23,800 2,220 Climbing FlightAware ADS-B
10:11AM 30.2287 -95.0233 44° Northeast 371 427 25,000 2,160 Climbing FlightAware ADS-B
10:11AM 30.2659 -94.9808 45° Northeast 377 434 26,000 1,620 Climbing FlightAware ADS-B
10:12AM 30.3041 -94.9372 45° Northeast 388 447 26,700 1,440 Climbing FlightAware ADS-B
10:12AM 30.3430 -94.8927 45° Northeast 396 456 27,500 1,560 Climbing FlightAware ADS-B
10:13AM 30.3837 -94.8462 45° Northeast 405 466 28,300 1,620 Climbing FlightAware ADS-B
10:13AM 30.4243 -94.7996 45° Northeast 409 471 29,200 1,200 Climbing FlightAware ADS-B
10:14AM 30.5102 -94.7013 45° Northeast 436 502 30,200 1,440 Climbing FlightAware ADS-B
10:15AM 30.5531 -94.6517 45° Northeast 430 495 31,400 2,160 Climbing FlightAware ADS-B
10:16AM 30.5961 -94.6021 45° Northeast 431 496 32,400 1,800 Climbing FlightAware ADS-B
10:16AM 30.6397 -94.5518 45° Northeast 433 498 33,300 1,740 Climbing FlightAware ADS-B
10:17AM 30.6823 -94.5025 45° Northeast 433 498 34,200 1,740 Climbing FlightAware ADS-B
10:17AM 30.7280 -94.4497 45° Northeast 433 498 35,100 1,800 Climbing FlightAware ADS-B
10:18AM 30.7720 -94.3988 45° Northeast 431 496 36,100 1,860 Climbing FlightAware ADS-B
10:18AM 30.8142 -94.3498 45° Northeast 429 494 37,000 1,860 Climbing FlightAware ADS-B
10:19AM 30.8567 -94.3005 45° Northeast 426 490 38,000 1,560 Climbing FlightAware ADS-B
10:19AM 30.9001 -94.2501 45° Northeast 433 498 38,600 960 Climbing FlightAware ADS-B
10:20AM 30.9440 -94.1991 45° Northeast 443 510 39,000 360 Climbing FlightAware ADS-B
10:20AM 30.9902 -94.1453 45° Northeast 463 533 39,000  Level FlightAware ADS-B
10:21AM 31.0369 -94.0907 45° Northeast 474 545 39,000  Level FlightAware ADS-B
10:21AM 31.0840 -94.0357 45° Northeast 479 551 39,000  Level FlightAware ADS-B
10:22AM 31.1378 -93.9726 45° Northeast 488 562 39,000  Level FlightAware ADS-B
10:22AM 31.1918 -93.9090 45° Northeast 495 570 39,000  Level FlightAware ADS-B
10:23AM 31.2426 -93.8492 45° Northeast 499 574 39,000  Level FlightAware ADS-B
10:23AM 31.2964 -93.7859 45° Northeast 501 577 39,000  Level FlightAware ADS-B
10:24AM 31.3597 -93.7112 45° Northeast 501 577 39,000  Level FlightAware ADS-B